Time;durP1;ratioP1;P1;durP2;ratioP2;P2;SDS_P1;SDS_P2;PMS_P1;PMS_P2;Temp;Humidity;BMP_temperature;BMP_pressure;BME280_temperature;BME280_humidity;BME280_pressure;Samples;Min_cycle;Max_cycle;Signal;HPM_P1;HPM_P2
2021/05/02 00:00:34;;;;;;;1.20;1.10;;;4.90;99.90;;;5.42;77.07;93798.97;5088049;28;20155;-66
2021/05/02 00:03:03;;;;;;;0.80;0.80;;;4.80;99.90;;;5.38;77.01;93789.97;5052611;28;20180;-67
2021/05/02 00:05:34;;;;;;;0.80;0.80;;;4.80;99.90;;;5.32;77.55;93785.66;5072236;28;20159;-67
2021/05/02 00:08:01;;;;;;;0.53;0.53;;;4.70;99.90;;;5.25;76.83;93787.63;5049355;28;20666;-67
2021/05/02 00:10:30;;;;;;;0.70;0.70;;;4.70;99.90;;;5.25;76.80;93798.13;5058484;28;20781;-66
2021/05/02 00:13:01;;;;;;;1.67;1.47;;;4.70;99.90;;;5.27;76.94;93791.59;5060645;28;20376;-67
2021/05/02 00:15:28;;;;;;;1.17;1.07;;;4.70;99.90;;;5.22;77.15;93799.41;5075798;28;20174;-66
2021/05/02 00:17:56;;;;;;;0.80;0.80;;;4.60;99.90;;;5.26;76.93;93804.97;5056431;28;20196;-66
2021/05/02 00:20:26;;;;;;;0.70;0.70;;;4.70;99.90;;;5.23;76.96;93802.81;5059619;28;20772;-65
2021/05/02 00:22:59;;;;;;;0.50;0.50;;;4.60;99.90;;;5.22;77.18;93804.66;5075690;28;20178;-66
2021/05/02 00:25:27;;;;;;;1.37;0.60;;;4.60;99.90;;;5.20;77.01;93804.09;5072634;28;20202;-67
2021/05/02 00:27:55;;;;;;;0.60;0.60;;;4.60;99.90;;;5.17;77.11;93801.94;5063779;28;20175;-65
2021/05/02 00:30:24;;;;;;;0.47;0.47;;;4.60;99.90;;;5.20;77.04;93811.97;5073503;28;20183;-67
2021/05/02 00:32:53;;;;;;;0.50;0.50;;;4.60;99.90;;;5.23;77.28;93806.25;5058867;28;20189;-66
2021/05/02 00:35:24;;;;;;;0.40;0.40;;;4.70;99.90;;;5.25;77.32;93816.50;5075606;28;20197;-67
2021/05/02 00:37:52;;;;;;;0.80;0.80;;;4.80;99.90;;;5.21;77.23;93807.50;5074153;28;20271;-68
2021/05/02 00:40:30;;;;;;;0.60;0.60;;;4.60;99.90;;;5.24;77.06;93809.69;5073527;28;20798;-67
2021/05/02 00:43:08;;;;;;;1.00;0.80;;;4.60;99.90;;;5.20;76.96;93806.72;5084883;28;20196;-66
2021/05/02 00:46:04;;;;;;;0.80;0.80;;;4.60;99.90;;;5.15;77.13;93811.88;5074998;28;20205;-67
2021/05/02 00:48:36;;;;;;;0.57;0.57;;;4.60;99.90;;;5.16;76.94;93814.28;5051827;28;20189;-66
2021/05/02 00:51:06;;;;;;;0.40;0.40;;;4.50;99.90;;;5.15;76.85;93820.53;5061120;28;20182;-66
2021/05/02 00:54:09;;;;;;;2.00;0.50;;;4.50;99.90;;;5.14;76.94;93828.66;5073837;28;20318;-70
2021/05/02 00:56:56;;;;;;;0.67;0.60;;;4.80;99.90;;;5.14;77.13;93823.38;5061287;28;20191;-67
2021/05/02 00:59:44;;;;;;;0.30;0.30;;;4.50;99.90;;;5.13;77.18;93827.88;5050168;28;20229;-66
2021/05/02 01:02:13;;;;;;;0.43;0.43;;;4.50;99.90;;;5.13;77.42;93827.06;5066242;28;20196;-66
2021/05/02 01:04:45;;;;;;;1.20;1.00;;;4.60;99.90;;;5.10;77.21;93836.19;5071414;28;20189;-67
2021/05/02 01:07:39;;;;;;;0.50;0.50;;;4.50;99.90;;;5.06;77.25;93839.53;5058160;28;20682;-67
2021/05/02 01:10:18;;;;;;;0.40;0.40;;;4.40;99.90;;;5.02;76.96;93836.56;5070942;28;20205;-67
2021/05/02 01:12:56;;;;;;;0.30;0.30;;;4.40;99.90;;;4.98;77.05;93835.44;5088450;28;20250;-67
2021/05/02 01:15:35;;;;;;;0.60;0.50;;;4.40;99.90;;;4.96;77.69;93842.75;5098736;28;20200;-66
2021/05/02 01:18:07;;;;;;;0.60;0.60;;;4.60;99.90;;;4.94;77.58;93844.78;5059461;28;20195;-68
2021/05/02 01:20:37;;;;;;;0.50;0.50;;;4.30;99.90;;;4.93;77.35;93842.41;5074802;28;20204;-66
2021/05/02 01:23:10;;;;;;;0.40;0.40;;;4.40;99.90;;;4.90;77.21;93853.38;5069785;28;20225;-69
2021/05/02 01:25:37;;;;;;;0.30;0.30;;;4.30;99.90;;;4.93;76.87;93847.66;5074725;28;20364;-67
2021/05/02 01:28:05;;;;;;;0.40;0.40;;;4.30;99.90;;;4.92;77.58;93843.44;5073635;28;20187;-67
2021/05/02 01:30:32;;;;;;;0.70;0.70;;;4.40;99.90;;;4.83;77.35;93850.06;5094640;28;20220;-67
2021/05/02 01:32:59;;;;;;;0.67;0.57;;;4.20;99.90;;;4.90;77.02;93861.25;5088591;27;20260;-65
2021/05/02 01:35:25;;;;;;;0.60;0.60;;;4.20;99.90;;;4.91;77.54;93861.00;5088470;28;20543;-66
2021/05/02 01:37:53;;;;;;;0.40;0.40;;;4.30;99.90;;;4.87;77.35;93857.25;5092279;28;20193;-66
2021/05/02 01:40:20;;;;;;;0.63;0.63;;;4.20;99.90;;;4.88;77.81;93858.84;5057778;28;20240;-65
2021/05/02 01:42:47;;;;;;;0.60;0.60;;;4.20;99.90;;;4.87;77.39;93866.97;5076402;28;20202;-66
2021/05/02 01:45:15;;;;;;;0.40;0.40;;;4.60;99.90;;;4.92;77.27;93867.88;5068402;28;20227;-67
2021/05/02 01:47:48;;;;;;;0.60;0.60;;;4.30;99.90;;;4.89;77.46;93865.72;5057791;28;20710;-65
2021/05/02 01:50:15;;;;;;;0.60;0.60;;;4.20;99.90;;;4.92;77.81;93872.31;5057220;28;20669;-65
2021/05/02 01:52:47;;;;;;;0.70;0.70;;;4.30;99.90;;;4.87;77.35;93873.00;5075456;28;20185;-68
2021/05/02 01:55:16;;;;;;;0.60;0.53;;;4.20;99.90;;;4.86;77.36;93874.03;5070042;28;20192;-66
2021/05/02 01:57:45;;;;;;;0.70;0.70;;;4.20;99.90;;;4.88;77.84;93874.59;5051271;28;20241;-66
2021/05/02 02:00:23;;;;;;;0.40;0.40;;;4.30;99.90;;;4.85;77.27;93895.25;5056318;28;20179;-67
2021/05/02 02:02:58;;;;;;;0.43;0.43;;;4.30;99.90;;;4.80;77.58;93889.91;5072041;28;20473;-67
2021/05/02 02:05:25;;;;;;;0.23;0.23;;;4.00;99.90;;;4.81;77.32;93892.28;5072361;28;20235;-67
2021/05/02 02:07:54;;;;;;;0.20;0.20;;;4.40;99.90;;;4.79;77.39;93873.38;5037794;28;20521;-66
2021/05/02 02:10:21;;;;;;;0.40;0.40;;;4.20;99.90;;;4.84;77.89;93896.28;5051079;28;20183;-66
2021/05/02 02:12:49;;;;;;;0.30;0.30;;;4.60;99.90;;;4.81;77.58;93897.53;5037397;28;20243;-65
2021/05/02 02:15:18;;;;;;;0.40;0.40;;;4.20;99.90;;;4.80;77.42;93892.53;5082927;28;20199;-66
2021/05/02 02:17:46;;;;;;;0.50;0.50;;;4.20;99.90;;;4.78;77.41;93900.63;5038826;28;20200;-67
2021/05/02 02:20:13;;;;;;;0.50;0.50;;;4.20;99.90;;;4.76;77.42;93888.78;5056534;28;20192;-67
2021/05/02 02:22:44;;;;;;;0.30;0.30;;;4.10;99.90;;;4.76;77.19;93907.94;5073062;28;20189;-66
2021/05/02 02:25:11;;;;;;;0.40;0.40;;;4.10;99.90;;;4.81;77.50;93904.63;5070700;28;20660;-65
2021/05/02 02:27:41;;;;;;;0.40;0.40;;;4.20;99.90;;;4.79;77.09;93904.06;5090649;28;20181;-67
2021/05/02 02:30:12;;;;;;;0.87;0.43;;;4.20;99.90;;;4.83;77.57;93907.84;5058600;28;20185;-66
2021/05/02 02:32:59;;;;;;;0.40;0.40;;;4.20;99.90;;;4.82;77.66;93914.91;5055663;28;20837;-66
2021/05/02 02:35:34;;;;;;;0.40;0.40;;;4.20;99.90;;;4.87;77.78;93915.00;5073155;28;20641;-66
2021/05/02 02:38:05;;;;;;;1.03;0.50;;;4.20;99.90;;;4.87;77.46;93911.59;5085692;28;20216;-66
2021/05/02 02:40:40;;;;;;;0.50;0.50;;;4.20;99.90;;;4.88;77.61;93915.81;5057440;28;20192;-65
2021/05/02 02:43:06;;;;;;;0.50;0.50;;;4.20;99.90;;;4.89;77.41;93922.66;5053956;28;20191;-66
2021/05/02 02:45:43;;;;;;;0.33;0.33;;;4.20;99.90;;;4.93;77.65;93922.00;5082765;28;20700;-65
2021/05/02 02:48:12;;;;;;;0.40;0.40;;;4.30;99.90;;;4.93;78.06;93915.94;5052920;28;20515;-68
2021/05/02 02:50:40;;;;;;;0.27;0.27;;;5.00;99.90;;;4.86;77.66;93923.13;5068859;28;20266;-68
2021/05/02 02:53:11;;;;;;;0.30;0.30;;;4.20;99.90;;;4.88;77.79;93923.69;5052642;28;20277;-67
2021/05/02 02:55:38;;;;;;;0.40;0.40;;;4.80;99.90;;;4.83;77.78;93921.75;5072782;28;20200;-66
2021/05/02 02:58:08;;;;;;;0.43;0.43;;;4.20;99.90;;;4.80;77.59;93916.16;5072530;28;20631;-67
2021/05/02 03:00:36;;;;;;;0.40;0.40;;;4.20;99.90;;;4.76;77.73;93925.53;5086568;28;20187;-67
2021/05/02 03:03:02;;;;;;;0.40;0.40;;;4.20;99.90;;;4.81;77.75;93934.28;5054042;28;20576;-67
2021/05/02 03:05:30;;;;;;;0.47;0.47;;;4.20;99.90;;;4.83;77.71;93926.22;5060199;28;20217;-69
2021/05/02 03:07:58;;;;;;;0.50;0.40;;;4.40;99.90;;;4.87;77.81;93943.88;5070500;28;20194;-68
2021/05/02 03:10:28;;;;;;;0.50;0.50;;;4.20;99.90;;;4.84;77.73;93939.09;5071022;28;20185;-66
2021/05/02 03:12:58;;;;;;;0.50;0.50;;;4.40;99.90;;;4.84;77.52;93946.16;5073556;28;20273;-67
2021/05/02 03:15:25;;;;;;;1.00;0.60;;;5.00;99.90;;;4.83;77.81;93940.13;5048723;28;20288;-68
2021/05/02 03:18:19;;;;;;;0.40;0.40;;;4.20;99.90;;;4.82;77.71;93935.91;5080233;28;20178;-66
2021/05/02 03:21:01;;;;;;;0.73;0.40;;;4.20;99.90;;;4.80;77.82;93930.06;5061126;28;20212;-65
2021/05/02 03:23:32;;;;;;;0.53;0.53;;;4.10;99.90;;;4.76;77.79;93936.81;5054586;28;20201;-66
2021/05/02 03:26:04;;;;;;;0.50;0.50;;;4.10;99.90;;;4.78;77.96;93950.50;5081888;28;20650;-66
2021/05/02 03:28:52;;;;;;;0.60;0.60;;;4.10;99.90;;;4.77;77.99;93953.38;5071800;28;20306;-67
2021/05/02 03:31:24;;;;;;;0.70;0.70;;;4.10;99.90;;;4.78;78.08;93950.50;5068298;28;20645;-65
2021/05/02 03:33:57;;;;;;;0.40;0.40;;;4.10;99.90;;;4.77;77.96;93950.75;5055342;28;20210;-65
2021/05/02 03:36:51;;;;;;;0.80;0.70;;;5.00;99.90;;;4.77;77.80;93962.03;5052663;28;20603;-68
2021/05/02 03:39:17;;;;;;;0.50;0.50;;;4.10;99.90;;;4.69;77.78;93959.75;4998888;28;20214;-67
2021/05/02 03:41:43;;;;;;;0.43;0.43;;;4.00;99.90;;;4.74;77.80;93957.22;5011943;28;20205;-67
2021/05/02 03:44:12;;;;;;;0.67;0.67;;;4.10;99.90;;;4.72;77.86;93964.53;5009957;28;20278;-65
2021/05/02 03:46:38;;;;;;;0.63;0.50;;;4.10;99.90;;;4.74;78.22;93967.72;5010855;28;20206;-67
2021/05/02 03:49:08;;;;;;;0.40;0.40;;;4.10;99.90;;;4.76;78.05;93965.69;5010448;28;20209;-66
2021/05/02 03:51:40;;;;;;;0.50;0.50;;;4.10;99.90;;;4.76;77.78;93970.16;5009653;28;20220;-66
2021/05/02 03:54:09;;;;;;;0.40;0.40;;;4.10;99.90;;;4.76;78.04;93970.16;5027374;28;20178;-65
2021/05/02 03:56:45;;;;;;;0.40;0.40;;;4.10;99.90;;;4.71;78.03;93977.88;5026555;28;20207;-67
2021/05/02 03:59:17;;;;;;;0.77;0.63;;;4.10;99.90;;;4.68;77.97;93967.84;5013164;28;20562;-66
2021/05/02 04:01:51;;;;;;;0.53;0.40;;;4.00;99.90;;;4.64;78.38;93976.16;5027165;28;20294;-67
2021/05/02 04:04:22;;;;;;;0.50;0.50;;;4.00;99.90;;;4.64;77.87;93986.66;5027058;28;20617;-69
2021/05/02 04:06:53;;;;;;;0.30;0.30;;;4.30;99.90;;;4.65;77.77;93980.41;4994348;28;20211;-70
2021/05/02 04:09:20;;;;;;;0.50;0.50;;;4.00;99.90;;;4.64;77.91;93980.63;5008077;28;20205;-70
2021/05/02 04:11:46;;;;;;;0.60;0.60;;;4.00;99.90;;;4.71;78.10;93988.38;5021710;28;20188;-68
2021/05/02 04:14:17;;;;;;;0.73;0.70;;;4.30;99.90;;;4.72;78.13;93998.66;5026187;28;20191;-71
2021/05/02 04:16:51;;;;;;;0.60;0.50;;;4.10;99.90;;;4.73;78.00;93988.97;5048155;28;20239;-70
2021/05/02 04:19:16;;;;;;;0.60;0.50;;;4.40;99.90;;;4.74;77.86;93999.22;5067713;28;20541;-70
2021/05/02 04:21:42;;;;;;;0.50;0.50;;;4.80;99.90;;;4.74;77.78;94001.84;5104531;28;20198;-69
2021/05/02 04:24:09;;;;;;;0.40;0.40;;;4.20;99.90;;;4.73;78.06;94000.28;5075579;28;20666;-68
2021/05/02 04:26:35;;;;;;;0.40;0.40;;;4.00;99.90;;;4.81;77.79;94013.06;5073897;28;20203;-70
2021/05/02 04:29:01;;;;;;;0.40;0.40;;;4.10;99.90;;;4.76;78.17;94006.91;5076158;28;20207;-69
2021/05/02 04:31:27;;;;;;;0.70;0.60;;;4.60;99.90;;;4.80;78.39;94016.69;5067513;28;20191;-68
2021/05/02 04:33:53;;;;;;;0.63;0.53;;;4.10;99.90;;;4.83;78.01;94021.53;5069405;28;20677;-70
2021/05/02 04:36:19;;;;;;;0.50;0.50;;;4.30;99.90;;;4.81;78.05;94020.13;5051911;28;20275;-69
2021/05/02 04:38:46;;;;;;;0.53;0.53;;;4.60;99.90;;;4.85;77.96;94024.72;5054559;28;20193;-68
2021/05/02 04:41:12;;;;;;;0.73;0.67;;;4.20;99.90;;;4.88;78.25;94019.00;5053882;28;20193;-69
2021/05/02 04:43:38;;;;;;;1.00;0.60;;;4.20;99.90;;;4.84;78.13;94036.22;5078851;28;20228;-69
2021/05/02 04:46:04;;;;;;;0.30;0.30;;;4.20;99.90;;;4.80;78.26;94039.56;5083479;28;20256;-70
2021/05/02 04:48:29;;;;;;;0.40;0.40;;;4.20;99.90;;;4.76;78.14;94036.56;5070558;28;20653;-69
2021/05/02 04:50:56;;;;;;;0.40;0.40;;;4.30;99.90;;;4.77;77.94;94040.78;5051722;28;20192;-69
2021/05/02 04:53:21;;;;;;;0.40;0.40;;;4.80;99.90;;;4.74;77.94;94043.06;5060322;28;20190;-68
2021/05/02 04:55:47;;;;;;;0.73;0.73;;;4.10;99.90;;;4.72;78.34;94045.13;5084599;28;20642;-70
2021/05/02 04:58:15;;;;;;;0.67;0.60;;;4.10;99.90;;;4.70;77.84;94049.81;5087865;28;20260;-68
2021/05/02 05:00:41;;;;;;;0.47;0.47;;;4.60;99.90;;;4.69;78.24;94043.75;5064662;28;20556;-69
2021/05/02 05:03:10;;;;;;;0.40;0.40;;;4.10;99.90;;;4.67;78.15;94053.66;5091630;28;20205;-69
2021/05/02 05:05:36;;;;;;;0.40;0.40;;;4.00;99.90;;;4.73;78.05;94059.84;5074976;28;20207;-68
2021/05/02 05:08:04;;;;;;;0.43;0.43;;;4.10;99.90;;;4.76;78.10;94065.44;5072280;28;20192;-69
2021/05/02 05:10:32;;;;;;;0.30;0.30;;;4.10;99.90;;;4.80;78.07;94068.44;5044805;28;20182;-68
2021/05/02 05:12:58;;;;;;;0.50;0.50;;;4.10;99.90;;;4.79;78.47;94069.44;5065822;28;20186;-69
2021/05/02 05:15:24;;;;;;;0.57;0.50;;;4.30;99.90;;;4.86;78.59;94078.03;5069554;28;20193;-69
2021/05/02 05:17:50;;;;;;;0.53;0.40;;;4.50;99.90;;;4.96;78.24;94084.34;5069805;28;20184;-69
2021/05/02 05:20:16;;;;;;;0.50;0.50;;;4.80;99.90;;;4.91;78.19;94086.00;5091042;28;20190;-69
2021/05/02 05:22:43;;;;;;;0.40;0.40;;;4.30;99.90;;;4.85;78.74;94085.09;5094632;28;20189;-68
2021/05/02 05:25:09;;;;;;;0.40;0.40;;;4.20;99.90;;;4.96;78.32;94091.41;5060764;28;20544;-67
2021/05/02 05:27:35;;;;;;;1.40;1.30;;;4.30;99.90;;;4.99;78.28;94089.13;5073587;28;20220;-70
2021/05/02 05:30:03;;;;;;;0.40;0.37;;;4.40;99.90;;;5.02;78.68;94093.94;5075092;28;20182;-69
2021/05/02 05:32:29;;;;;;;0.40;0.40;;;4.40;99.90;;;5.03;78.27;94085.03;5069228;28;20175;-70
2021/05/02 05:34:55;;;;;;;0.40;0.40;;;4.70;99.90;;;5.05;78.59;94090.03;5076726;28;20226;-68
2021/05/02 05:37:21;;;;;;;0.40;0.40;;;4.40;99.90;;;5.06;78.63;94097.72;5094777;28;20804;-70
2021/05/02 05:39:50;;;;;;;0.60;0.60;;;4.50;99.90;;;5.11;78.24;94110.97;5090312;28;20285;-68
2021/05/02 05:42:16;;;;;;;0.67;0.50;;;4.40;99.90;;;5.09;78.57;94102.50;5072513;28;20229;-68
2021/05/02 05:44:42;;;;;;;0.60;0.60;;;4.80;99.90;;;5.14;78.29;94102.63;5071364;28;20216;-68
2021/05/02 05:47:12;;;;;;;0.60;0.60;;;4.50;99.90;;;5.14;78.11;94100.00;5053641;28;20209;-68
2021/05/02 05:49:40;;;;;;;0.90;0.80;;;4.50;99.90;;;5.26;78.55;94117.63;5074865;28;20641;-68
2021/05/02 05:52:10;;;;;;;0.70;0.70;;;4.60;99.90;;;5.33;78.58;94103.34;5073503;28;20685;-68
2021/05/02 05:54:39;;;;;;;1.10;1.00;;;4.70;99.90;;;5.35;78.16;94105.72;5059661;28;20327;-68
2021/05/02 05:57:05;;;;;;;0.70;0.63;;;4.70;99.90;;;5.34;78.01;94114.66;5049149;28;20195;-68
2021/05/02 05:59:31;;;;;;;0.63;0.63;;;4.70;99.90;;;5.36;78.72;94116.03;5045796;28;20212;-69
2021/05/02 06:01:57;;;;;;;1.40;1.10;;;4.80;99.90;;;5.42;78.71;94119.56;5063022;28;20185;-68
2021/05/02 06:04:23;;;;;;;0.83;0.83;;;4.80;99.90;;;5.47;78.05;94119.69;5071830;28;20633;-71
2021/05/02 06:06:49;;;;;;;1.30;1.10;;;4.90;99.90;;;5.47;78.62;94128.38;5070487;28;20206;-68
2021/05/02 06:09:21;;;;;;;0.70;0.70;;;4.90;99.90;;;5.54;78.64;94125.66;5092343;28;20185;-68
2021/05/02 06:11:47;;;;;;;0.80;0.80;;;4.90;99.90;;;5.58;78.54;94127.56;5079080;28;20213;-69
2021/05/02 06:14:16;;;;;;;1.00;0.90;;;5.00;99.90;;;5.61;78.56;94134.19;5060293;28;20183;-70
2021/05/02 06:16:42;;;;;;;1.50;1.17;;;5.00;99.90;;;5.58;78.06;94129.41;5054192;28;20530;-69
2021/05/02 06:19:08;;;;;;;1.97;1.80;;;5.00;99.90;;;5.60;78.14;94132.63;5048967;28;20304;-68
2021/05/02 06:21:40;;;;;;;1.30;1.13;;;5.00;99.90;;;5.68;78.55;94138.31;5054347;28;20550;-68
2021/05/02 06:24:08;;;;;;;1.40;1.30;;;5.00;99.90;;;5.75;78.09;94137.41;5072531;28;20216;-67
2021/05/02 06:26:34;;;;;;;1.90;1.57;;;5.10;99.90;;;5.68;78.76;94137.53;5055990;28;20199;-69
2021/05/02 06:29:00;;;;;;;2.87;1.40;;;5.10;99.90;;;5.72;78.79;94146.56;5088380;28;20197;-68
2021/05/02 06:31:28;;;;;;;1.57;1.47;;;5.10;99.90;;;5.77;78.80;94140.63;5057008;28;20192;-66
2021/05/02 06:33:55;;;;;;;1.57;1.43;;;5.20;99.90;;;5.72;78.71;94146.56;5093021;28;20174;-66
2021/05/02 06:36:21;;;;;;;1.47;1.37;;;5.10;99.90;;;5.79;78.69;94151.72;5087431;28;20218;-66
2021/05/02 06:38:47;;;;;;;1.87;1.53;;;5.20;99.90;;;5.83;78.68;94137.88;5079893;28;20187;-66
2021/05/02 06:41:14;;;;;;;1.80;1.60;;;5.20;99.90;;;5.89;78.78;94144.06;5080441;28;20204;-66
2021/05/02 06:43:40;;;;;;;1.60;1.50;;;5.30;99.90;;;5.77;78.31;94136.19;5081133;28;20190;-65
2021/05/02 06:46:26;;;;;;;2.77;2.13;;;5.30;99.90;;;5.72;78.44;94151.00;5050456;28;20206;-65
2021/05/02 06:48:57;;;;;;;1.50;1.40;;;5.20;99.90;;;5.74;78.17;94162.13;5058252;28;20545;-67
2021/05/02 06:51:24;;;;;;;1.30;1.20;;;5.20;99.90;;;5.71;78.37;94165.97;5052791;28;20189;-67
2021/05/02 06:53:51;;;;;;;1.60;1.50;;;5.10;99.90;;;5.78;78.20;94166.69;5082096;28;20301;-66
2021/05/02 06:56:18;;;;;;;1.27;1.17;;;5.20;99.90;;;5.89;77.93;94173.00;5066009;28;20294;-67
2021/05/02 06:58:48;;;;;;;0.80;0.80;;;5.30;99.90;;;5.89;78.41;94178.25;5055943;28;20190;-66
2021/05/02 07:01:16;;;;;;;1.20;1.10;;;5.30;99.90;;;5.96;78.54;94168.44;5054727;28;20802;-66
2021/05/02 07:03:44;;;;;;;1.40;1.30;;;5.30;99.90;;;6.08;78.22;94180.53;5073223;28;20954;-68
2021/05/02 07:06:11;;;;;;;1.10;1.00;;;5.40;99.90;;;6.12;78.58;94178.25;5089645;28;20206;-66
2021/05/02 07:08:37;;;;;;;1.03;0.93;;;5.40;99.90;;;6.28;78.46;94182.81;5087676;28;20218;-66
2021/05/02 07:11:04;;;;;;;0.93;0.93;;;5.60;99.90;;;6.46;78.02;94187.16;5052118;28;20216;-68
2021/05/02 07:13:30;;;;;;;0.93;0.93;;;5.80;99.90;;;6.53;78.82;94186.00;5054789;28;20218;-68
2021/05/02 07:16:00;;;;;;;0.80;0.80;;;5.80;99.90;;;6.50;78.53;94188.28;5072883;28;20875;-67
2021/05/02 07:18:32;;;;;;;0.87;0.80;;;5.90;99.90;;;6.51;77.88;94192.53;5051400;28;20185;-67
2021/05/02 07:21:00;;;;;;;0.90;0.70;;;5.90;99.90;;;6.53;78.64;94191.25;5062384;28;20190;-68
2021/05/02 07:23:28;;;;;;;0.70;0.70;;;6.00;99.90;;;6.52;78.61;94199.38;5045466;28;20183;-66
2021/05/02 07:25:54;;;;;;;1.00;0.90;;;5.90;99.90;;;6.63;77.88;94199.38;5078575;28;20194;-68
2021/05/02 07:28:25;;;;;;;1.33;1.00;;;6.10;99.90;;;6.88;78.71;94199.06;5067427;28;20560;-67
2021/05/02 07:30:57;;;;;;;0.83;0.67;;;6.20;99.90;;;6.91;78.31;94205.72;5072883;28;20175;-67
2021/05/02 07:33:26;;;;;;;0.50;0.50;;;6.30;99.90;;;6.79;78.91;94194.38;5064927;28;20272;-67
2021/05/02 07:35:53;;;;;;;0.70;0.70;;;6.30;99.90;;;6.99;77.84;94200.84;5095211;28;20205;-69
2021/05/02 07:38:19;;;;;;;0.80;0.80;;;6.40;99.90;;;6.96;78.24;94190.78;5054285;28;20547;-68
2021/05/02 07:40:47;;;;;;;0.50;0.50;;;6.40;99.90;;;6.96;78.27;94195.25;5085313;28;20204;-68
2021/05/02 07:43:16;;;;;;;0.80;0.80;;;6.40;99.90;;;6.87;78.11;94202.75;5083764;28;20174;-68
2021/05/02 07:45:44;;;;;;;0.60;0.60;;;6.40;99.90;;;6.87;78.23;94208.00;5081570;28;20206;-66
2021/05/02 07:48:16;;;;;;;0.80;0.60;;;6.30;99.90;;;6.92;77.87;94208.09;5052454;28;20163;-67
2021/05/02 07:50:42;;;;;;;0.70;0.60;;;6.40;99.90;;;7.03;78.42;94209.91;5069408;28;20238;-66
2021/05/02 07:53:08;;;;;;;1.30;1.20;;;6.50;99.90;;;6.94;78.06;94210.50;5055691;28;20218;-67
2021/05/02 07:55:34;;;;;;;0.80;0.70;;;6.40;99.90;;;6.95;77.93;94220.78;5039292;28;20248;-66
2021/05/02 07:58:01;;;;;;;1.33;1.00;;;6.30;99.90;;;6.95;78.63;94220.78;5069829;28;20273;-66
2021/05/02 08:00:31;;;;;;;0.73;0.73;;;6.40;99.90;;;7.09;78.21;94226.59;5042006;28;20589;-67
2021/05/02 08:03:00;;;;;;;1.47;1.27;;;6.60;99.90;;;7.05;78.25;94215.72;5055800;28;20186;-67
2021/05/02 08:05:31;;;;;;;0.77;0.70;;;6.50;99.90;;;7.22;78.61;94226.31;5089434;28;20214;-66
2021/05/02 08:07:57;;;;;;;0.80;0.80;;;6.60;99.90;;;7.53;78.13;94238.22;5056361;28;20202;-68
2021/05/02 08:10:28;;;;;;;0.70;0.70;;;6.90;99.90;;;7.68;78.50;94231.38;5055707;28;20257;-69
2021/05/02 08:12:58;;;;;;;0.63;0.63;;;7.00;99.90;;;7.79;78.39;94232.31;5053030;28;20183;-67
2021/05/02 08:15:25;;;;;;;0.70;0.70;;;7.20;99.90;;;8.04;78.19;94235.38;5044131;28;20176;-67
2021/05/02 08:17:51;;;;;;;0.80;0.60;;;7.60;99.90;;;8.09;77.95;94227.53;5078107;28;20812;-68
2021/05/02 08:20:17;;;;;;;0.70;0.70;;;7.50;99.90;;;8.06;78.22;94228.03;5052010;28;20262;-68
2021/05/02 08:22:43;;;;;;;0.40;0.40;;;7.50;99.90;;;8.14;78.10;94240.81;5052223;28;20193;-69
2021/05/02 08:25:10;;;;;;;0.67;0.67;;;7.60;99.90;;;8.37;78.27;94237.22;5070602;28;20190;-69
2021/05/02 08:27:36;;;;;;;0.80;0.80;;;7.80;99.90;;;8.33;77.95;94222.91;5080593;28;20187;-67
2021/05/02 08:30:04;;;;;;;1.00;0.73;;;7.80;99.90;;;8.30;78.19;94233.16;5067951;28;20188;-66
2021/05/02 08:32:31;;;;;;;0.70;0.70;;;7.70;99.90;;;8.48;77.44;94246.91;5073547;28;20740;-67
2021/05/02 08:35:01;;;;;;;0.73;0.70;;;7.90;99.90;;;8.62;77.52;94234.97;5074570;28;20202;-67
2021/05/02 08:37:29;;;;;;;0.50;0.50;;;8.10;99.90;;;8.77;77.67;94253.66;5099594;28;20177;-65
2021/05/02 08:39:56;;;;;;;1.43;0.60;;;8.20;99.90;;;8.86;77.67;94232.91;5076679;28;20174;-68
2021/05/02 08:42:22;;;;;;;0.60;0.60;;;8.40;99.90;;;9.04;77.56;94235.22;5075891;28;20216;-68
2021/05/02 08:44:51;;;;;;;1.03;0.80;;;8.60;99.90;;;9.27;77.89;94229.66;5054053;28;20202;-69
2021/05/02 08:47:20;;;;;;;3.17;2.00;;;8.70;99.90;;;9.73;77.68;94265.34;5074494;28;20233;-67
2021/05/02 08:49:46;;;;;;;2.10;1.03;;;9.10;99.90;;;10.25;77.86;94260.28;5062489;28;20179;-68
2021/05/02 08:52:14;;;;;;;1.70;1.30;;;9.60;99.90;;;10.36;77.51;94241.78;5051782;28;20287;-66
2021/05/02 08:54:40;;;;;;;1.30;1.10;;;9.90;99.90;;;10.42;77.70;94238.94;5068750;28;20214;-69
2021/05/02 08:57:06;;;;;;;1.63;1.20;;;9.90;99.90;;;10.27;77.53;94250.19;5054138;28;20184;-68
2021/05/02 08:59:32;;;;;;;1.53;1.43;;;9.90;99.90;;;10.39;77.53;94252.69;5072888;28;20193;-68
2021/05/02 09:02:02;;;;;;;1.30;1.20;;;10.00;99.90;;;10.42;77.48;94246.06;5092487;28;20256;-68
2021/05/02 09:04:27;;;;;;;1.40;1.30;;;10.10;99.90;;;10.40;77.45;94249.00;5085784;28;20794;-68
2021/05/02 09:06:53;;;;;;;1.23;1.13;;;10.10;99.90;;;10.55;77.51;94264.97;5082043;28;20222;-67
2021/05/02 09:09:20;;;;;;;1.57;1.47;;;10.20;99.90;;;10.73;77.27;94269.88;5068420;28;20185;-68
2021/05/02 09:11:49;;;;;;;1.40;1.30;;;10.30;99.90;;;10.80;77.11;94257.22;5055230;28;20290;-67
2021/05/02 09:14:25;;;;;;;1.13;1.03;;;10.40;99.90;;;10.59;77.14;94254.66;5054904;28;20540;-69
2021/05/02 09:16:59;;;;;;;1.37;1.27;;;10.30;99.90;;;10.62;77.13;94254.97;5069312;28;20198;-71
2021/05/02 09:19:46;;;;;;;1.83;1.70;;;10.30;99.90;;;10.65;76.89;94277.50;5074354;28;20175;-68
2021/05/02 09:22:13;;;;;;;1.47;1.20;;;10.30;99.90;;;10.71;76.82;94276.50;5095312;27;20190;-69
2021/05/02 09:24:41;;;;;;;1.40;1.30;;;10.30;99.90;;;10.72;76.92;94273.59;5056928;28;20181;-69
2021/05/02 09:27:15;;;;;;;1.20;0.80;;;10.40;99.90;;;10.70;76.90;94280.19;5051439;28;20306;-68
2021/05/02 09:29:44;;;;;;;5.67;1.30;;;10.30;99.90;;;10.54;77.01;94262.59;5071960;28;20177;-67
2021/05/02 09:32:13;;;;;;;16.17;1.50;;;10.30;99.90;;;10.43;76.61;94276.81;5067103;28;20618;-70
2021/05/02 09:35:02;;;;;;;1.73;0.87;;;10.10;99.90;;;10.62;76.40;94276.16;5062489;28;20692;-68
2021/05/02 09:37:34;;;;;;;1.00;1.00;;;10.30;99.90;;;10.68;76.38;94284.94;5072639;28;21685;-69
2021/05/02 09:40:02;;;;;;;1.30;1.20;;;10.20;99.90;;;10.67;76.59;94286.81;5075153;28;20194;-68
2021/05/02 09:42:38;;;;;;;1.53;1.43;;;10.30;99.90;;;10.76;76.63;94268.56;5070282;28;20198;-68
2021/05/02 09:45:08;;;;;;;1.23;1.13;;;10.50;99.90;;;10.80;76.39;94281.06;5073904;28;20185;-69
2021/05/02 09:47:42;;;;;;;2.30;1.00;;;10.50;99.90;;;10.78;76.53;94277.06;5068585;28;20179;-72
2021/05/02 09:50:13;;;;;;;1.10;1.10;;;10.40;99.90;;;10.99;76.32;94277.97;5067599;28;20195;-70
2021/05/02 09:52:51;;;;;;;1.40;1.30;;;10.60;99.90;;;11.31;76.04;94297.25;5070508;28;20216;-69
2021/05/02 09:55:26;;;;;;;1.23;1.13;;;10.80;99.90;;;11.81;76.19;94286.03;5070782;28;20180;-69
2021/05/02 09:58:22;;;;;;;1.47;1.37;;;11.20;99.90;;;11.99;76.28;94301.47;5084023;28;20192;-68
2021/05/02 10:00:50;;;;;;;1.23;1.13;;;11.40;99.90;;;12.38;75.74;94300.97;5073590;28;20185;-69
2021/05/02 10:03:21;;;;;;;1.70;1.60;;;11.70;99.90;;;12.88;75.94;94297.50;5083500;28;20179;-69
2021/05/02 10:06:11;;;;;;;1.70;1.60;;;12.30;99.90;;;13.44;76.21;94301.63;5055853;28;20629;-69
2021/05/02 10:08:39;;;;;;;2.80;2.30;;;12.90;99.90;;;13.61;75.55;94293.31;5065251;28;20191;-69
2021/05/02 10:11:11;;;;;;;2.17;2.00;;;13.10;99.90;;;13.86;75.88;94303.88;5062335;28;20186;-69
2021/05/02 10:13:39;;;;;;;2.70;2.50;;;13.40;99.90;;;13.74;75.19;94274.06;5053646;28;20184;-70
2021/05/02 10:16:06;;;;;;;3.87;3.53;;;13.30;99.90;;;13.28;75.30;94265.50;5072029;28;20188;-69
2021/05/02 10:18:33;;;;;;;3.80;3.50;;;13.10;99.90;;;13.51;75.47;94296.03;5069897;28;20208;-69
2021/05/02 10:21:02;;;;;;;4.13;3.83;;;13.10;99.90;;;13.33;75.10;94284.91;5087041;28;20216;-69
2021/05/02 10:23:31;;;;;;;4.33;3.93;;;13.00;99.90;;;13.46;75.05;94280.88;5049672;28;20196;-69
2021/05/02 10:25:59;;;;;;;4.40;4.03;;;13.00;99.90;;;13.90;75.40;94293.47;5064924;28;20216;-69
2021/05/02 10:28:33;;;;;;;4.90;4.50;;;13.50;99.90;;;14.40;74.76;94297.69;5070971;28;20217;-70
2021/05/02 10:31:10;;;;;;;5.00;4.60;;;14.00;99.90;;;14.12;75.02;94273.31;5057386;28;20189;-69
2021/05/02 10:33:45;;;;;;;5.37;4.87;;;13.80;99.90;;;13.82;74.22;94287.63;5080379;28;20613;-70
2021/05/02 10:36:32;;;;;;;4.97;4.57;;;13.60;99.90;;;13.47;74.58;94281.66;5088638;28;20215;-72
2021/05/02 10:39:00;;;;;;;5.70;5.20;;;13.20;99.90;;;13.79;74.12;94306.03;5060734;28;20270;-70
2021/05/02 10:41:34;;;;;;;6.10;5.50;;;13.40;99.90;;;14.55;74.14;94319.72;5057521;28;20693;-73